createdAt,value
2022-09-23T00:00:00.559Z,9.19
2022-09-23T00:07:03.394Z,9.20
2022-09-23T00:13:32.902Z,9.16
2022-09-23T00:20:17.951Z,9.18
2022-09-23T00:27:12.218Z,9.21
2022-09-23T00:33:58.822Z,9.19
2022-09-23T00:40:48.592Z,9.20
2022-09-23T00:47:33.361Z,9.21
2022-09-23T00:54:24.986Z,9.09
2022-09-23T01:01:08.532Z,8.96
2022-09-23T01:08:01.071Z,8.96
2022-09-23T01:14:47.301Z,8.88
2022-09-23T02:16:51.773Z,8.52
2022-09-23T02:23:36.420Z,8.40
2022-09-23T02:30:18.068Z,8.48
2022-09-23T03:24:30.423Z,8.85
2022-09-23T03:31:16.032Z,8.76
2022-09-23T03:38:02.536Z,8.51
2022-09-23T03:44:45.787Z,8.33
2022-09-23T03:51:28.815Z,8.30
2022-09-23T03:58:18.030Z,8.34
2022-09-23T04:05:02.523Z,8.34
2022-09-23T04:11:49.654Z,8.27
2022-09-23T04:18:45.663Z,8.25
2022-09-23T04:33:02.096Z,8.12
2022-09-23T04:39:46.606Z,8.21
2022-09-23T04:46:29.519Z,8.28
2022-09-23T04:53:29.100Z,8.25
2022-09-23T05:00:21.275Z,8.32
2022-09-23T05:07:05.613Z,8.36
2022-09-23T05:13:55.333Z,8.43
2022-09-23T05:20:46.649Z,8.58
2022-09-23T05:34:47.045Z,8.73
2022-09-23T05:41:29.168Z,8.88
2022-09-23T05:48:21.709Z,8.97
2022-09-23T05:55:04.703Z,9.07
2022-09-23T06:01:56.493Z,9.05
2022-09-23T06:08:51.470Z,8.86
2022-09-23T06:15:34.734Z,8.93
2022-09-23T06:22:21.142Z,9.21
2022-09-23T06:29:08.031Z,9.52
2022-09-23T06:35:56.274Z,9.86
2022-09-23T07:44:28.184Z,13.70
2022-09-23T08:35:39.330Z,14.00
2022-09-23T08:49:27.814Z,13.33
2022-09-23T08:56:17.833Z,13.30
2022-09-23T09:03:10.061Z,14.21
2022-09-23T09:38:45.827Z,14.40
2022-09-23T09:45:36.573Z,14.85
2022-09-23T09:52:34.134Z,14.32
2022-09-23T09:59:19.263Z,13.58
2022-09-23T10:31:08.075Z,14.86
2022-09-23T10:38:18.662Z,14.37
2022-09-23T10:45:15.795Z,13.88
2022-09-23T10:52:07.968Z,14.41
2022-09-23T10:59:05.920Z,14.96
2022-09-23T11:05:59.151Z,15.47
2022-09-23T11:34:03.586Z,14.14
2022-09-23T11:41:08.716Z,13.82
2022-09-23T12:10:30.932Z,16.35
2022-09-23T12:17:38.003Z,16.85
2022-09-23T12:31:56.201Z,15.58
2022-09-23T13:03:36.921Z,15.43
2022-09-23T13:10:58.549Z,15.77
2022-09-23T13:16:55.753Z,15.92
2022-09-23T13:36:12.219Z,16.28
2022-09-23T13:43:02.988Z,16.48
2022-09-23T14:22:24.758Z,17.85
2022-09-23T14:36:30.356Z,17.62
2022-09-23T14:43:15.106Z,18.09
2022-09-23T14:49:59.799Z,18.50
2022-09-23T14:56:49.721Z,18.27
2022-09-23T15:03:45.181Z,17.59
2022-09-23T15:10:28.691Z,17.06
2022-09-23T15:17:14.730Z,16.67
2022-09-23T15:23:57.862Z,16.21
2022-09-23T15:30:51.973Z,15.80
2022-09-23T15:37:51.691Z,15.43
2022-09-23T15:51:42.604Z,15.88
2022-09-23T15:58:44.778Z,16.36
2022-09-23T16:05:26.861Z,16.79
2022-09-23T16:12:10.416Z,16.98
2022-09-23T16:19:07.688Z,16.67
2022-09-23T16:25:52.924Z,16.07
2022-09-23T16:32:41.564Z,15.31
2022-09-23T16:39:26.688Z,14.67
2022-09-23T16:46:12.433Z,14.08
2022-09-23T16:53:05.829Z,13.52
2022-09-23T16:59:52.446Z,13.03
2022-09-23T17:06:56.418Z,12.60
2022-09-23T17:13:19.955Z,12.22
2022-09-23T17:19:45.581Z,11.91
2022-09-23T17:26:09.190Z,11.70
2022-09-23T17:32:52.807Z,11.55
2022-09-23T17:39:39.469Z,11.36
2022-09-23T17:46:34.043Z,11.17
2022-09-23T17:53:34.009Z,11.07
2022-09-23T18:00:18.377Z,10.93
2022-09-23T18:07:09.185Z,10.76
2022-09-23T18:13:32.155Z,10.61
2022-09-23T18:19:56.071Z,10.39
2022-09-23T18:26:53.314Z,10.08
2022-09-23T18:33:35.866Z,9.74
2022-09-23T18:40:19.201Z,9.49
2022-09-23T18:47:02.807Z,9.44
2022-09-23T18:53:45.927Z,9.46
2022-09-23T19:00:29.122Z,9.44
2022-09-23T19:07:12.291Z,9.41
2022-09-23T19:13:55.048Z,9.39
2022-09-23T19:19:32.879Z,9.05
2022-09-23T19:25:36.725Z,8.62
2022-09-23T19:38:31.783Z,8.30
2022-09-23T19:44:19.330Z,8.42
2022-09-23T19:50:01.487Z,8.54
2022-09-23T19:55:26.413Z,8.60
2022-09-23T20:01:29.471Z,8.67
2022-09-23T20:07:13.099Z,8.67
2022-09-23T20:13:15.487Z,8.62
2022-09-23T20:18:42.408Z,8.61
2022-09-23T20:24:05.892Z,9.77
2022-09-23T20:29:27.780Z,11.19
2022-09-23T20:34:51.080Z,11.63
2022-09-23T20:40:16.274Z,10.93
2022-09-23T20:45:38.437Z,10.15
2022-09-23T20:52:11.742Z,9.49
2022-09-23T20:58:57.791Z,8.89
2022-09-23T21:05:39.142Z,8.51
2022-09-23T21:12:27.716Z,8.40
2022-09-23T21:19:13.057Z,8.27
2022-09-23T21:26:00.063Z,8.20
2022-09-23T21:32:46.281Z,8.19
2022-09-23T21:39:38.621Z,8.19
2022-09-23T21:46:17.732Z,7.84
2022-09-23T22:00:39.583Z,7.81
2022-09-23T22:14:54.626Z,7.77
2022-09-23T22:21:48.003Z,7.79
2022-09-23T22:28:37.278Z,7.87
2022-09-23T22:35:04.955Z,7.79
2022-09-23T22:41:47.765Z,7.86
2022-09-23T23:03:01.602Z,7.60
2022-09-23T23:09:47.171Z,7.61
2022-09-23T23:23:42.886Z,7.85
2022-09-23T23:30:26.307Z,7.87
2022-09-23T23:37:07.933Z,7.89
2022-09-23T23:44:24.375Z,7.99
2022-09-23T23:51:09.032Z,8.02
